Time;durP1;ratioP1;P1;durP2;ratioP2;P2;SDS_P1;SDS_P2;PMS_P1;PMS_P2;Temp;Humidity;BMP_temperature;BMP_pressure;BME280_temperature;BME280_humidity;BME280_pressure;Samples;Min_cycle;Max_cycle;Signal;HPM_P1;HPM_P2
2022/08/20 00:00:54;;;;;;;2.23;2.13;;;;;;;21.88;51.91;101092.91;4953098;28;97311;-48
2022/08/20 00:03:30;;;;;;;1.97;1.87;;;;;;;21.89;52.45;101094.38;4953879;28;97327;-48
2022/08/20 00:06:13;;;;;;;1.90;1.80;;;;;;;21.88;52.57;101090.84;4955886;28;96904;-47
2022/08/20 00:08:40;;;;;;;2.60;2.50;;;;;;;21.86;51.87;101093.47;4957451;28;96992;-49
2022/08/20 00:11:09;;;;;;;2.57;2.40;;;;;;;21.84;51.92;101090.47;4954603;28;97719;-49
2022/08/20 00:13:41;;;;;;;2.03;1.93;;;;;;;21.82;52.13;101098.66;4955035;28;96891;-47
2022/08/20 00:16:07;;;;;;;2.00;1.90;;;;;;;21.80;52.02;101094.94;4953022;28;96964;-48
2022/08/20 00:18:35;;;;;;;2.13;2.03;;;;;;;21.78;52.17;101092.69;4952963;28;96823;-48
2022/08/20 00:21:03;;;;;;;2.10;2.00;;;;;;;21.77;52.31;101099.59;4953365;28;97444;-47
2022/08/20 00:23:29;;;;;;;2.03;1.93;;;;;;;21.76;52.31;101100.16;4954398;28;96912;-49
2022/08/20 00:25:54;;;;;;;5.17;1.83;;;;;;;21.77;52.42;101102.41;4954875;28;96972;-49
2022/08/20 00:28:20;;;;;;;2.03;1.93;;;;;;;21.76;52.49;101098.09;4952963;28;99859;-48
2022/08/20 00:30:46;;;;;;;2.90;2.00;;;;;;;21.74;52.57;101099.97;4955001;28;97356;-47
2022/08/20 00:33:18;;;;;;;2.30;2.20;;;;;;;21.75;52.69;101112.66;4954884;28;97265;-48
2022/08/20 00:35:47;;;;;;;2.00;1.90;;;;;;;21.73;52.66;101107.63;4954227;28;96630;-47
2022/08/20 00:38:12;;;;;;;2.60;2.10;;;;;;;21.73;52.71;101113.25;4954765;28;98290;-47
2022/08/20 00:40:54;;;;;;;2.17;2.07;;;;;;;21.72;53.11;101105.38;4952191;28;97365;-47
2022/08/20 00:43:38;;;;;;;2.20;2.10;;;;;;;21.68;53.24;101116.97;4954388;28;101377;-49
2022/08/20 00:46:08;;;;;;;2.20;2.10;;;;;;;21.65;52.82;101118.06;4950271;28;97179;-48
2022/08/20 00:48:36;;;;;;;1.97;1.87;;;;;;;21.66;52.80;101108.38;4951362;28;96882;-47
2022/08/20 00:51:27;;;;;;;2.00;1.90;;;;;;;21.64;53.52;101120.13;4955037;28;98960;-47
2022/08/20 00:54:03;;;;;;;1.90;1.80;;;;;;;21.65;53.12;101116.03;4953938;28;101694;-47
2022/08/20 00:56:32;;;;;;;1.93;1.83;;;;;;;21.63;52.92;101112.28;4955335;28;96792;-48
2022/08/20 00:58:59;;;;;;;7.17;2.20;;;;;;;21.60;52.71;101116.94;4955799;28;97046;-50
2022/08/20 01:01:24;;;;;;;2.43;2.23;;;;;;;21.58;52.87;101124.41;4952979;28;97453;-49
2022/08/20 01:03:52;;;;;;;2.03;1.90;;;;;;;21.57;52.91;101120.13;4950961;28;97087;-49
2022/08/20 01:06:17;;;;;;;2.60;2.40;;;;;;;21.56;53.00;101122.16;4957320;28;97375;-49
2022/08/20 01:08:43;;;;;;;2.53;2.33;;;;;;;21.56;52.98;101121.41;4953607;28;96991;-49
2022/08/20 01:11:15;;;;;;;2.13;2.03;;;;;;;21.57;53.12;101128.53;4952682;28;97063;-49
2022/08/20 01:13:43;;;;;;;2.00;1.90;;;;;;;21.59;53.22;101123.88;4953784;28;102287;-49
2022/08/20 01:16:25;;;;;;;2.10;2.00;;;;;;;21.59;53.64;101134.31;4953754;28;97101;-49
2022/08/20 01:18:52;;;;;;;2.10;2.00;;;;;;;21.60;53.19;101130.22;4954806;28;97169;-49
2022/08/20 01:21:27;;;;;;;2.07;1.97;;;;;;;21.61;53.27;101129.66;4958564;28;97285;-48
2022/08/20 01:23:59;;;;;;;2.20;2.10;;;;;;;21.62;53.19;101130.41;4955780;28;100301;-49
2022/08/20 01:26:38;;;;;;;2.30;2.20;;;;;;;21.60;53.22;101133.03;4953463;28;96850;-49
2022/08/20 01:29:09;;;;;;;2.07;1.97;;;;;;;21.58;53.27;101135.59;4955370;28;97156;-49
2022/08/20 01:31:37;;;;;;;2.33;2.23;;;;;;;21.59;53.29;101137.13;4955202;28;97416;-49
2022/08/20 01:34:05;;;;;;;2.40;2.30;;;;;;;21.59;53.45;101140.66;4954892;28;97394;-53
2022/08/20 01:36:34;;;;;;;2.10;2.00;;;;;;;21.61;53.64;101140.09;4957217;28;96864;-49
2022/08/20 01:39:00;;;;;;;4.63;2.90;;;;;;;21.60;53.53;101142.16;4951834;28;96936;-49
2022/08/20 01:41:47;;;;;;;2.10;2.00;;;;;;;21.61;53.72;101137.31;4948896;28;97882;-49
2022/08/20 01:44:13;;;;;;;2.53;2.43;;;;;;;21.61;53.64;101137.31;4951218;28;100293;-48
2022/08/20 01:46:41;;;;;;;2.10;2.00;;;;;;;21.62;53.67;101147.94;4954024;28;97387;-48
2022/08/20 01:49:20;;;;;;;3.10;2.20;;;;;;;21.60;53.96;101147.03;4953470;28;97303;-49
2022/08/20 01:51:46;;;;;;;2.30;2.20;;;;;;;21.57;53.74;101151.69;4950909;28;100937;-48
2022/08/20 01:54:12;;;;;;;3.63;1.70;;;;;;;21.57;53.87;101151.69;4955291;28;98086;-48
2022/08/20 01:56:50;;;;;;;2.50;2.40;;;;;;;21.58;54.30;101152.41;4952522;28;97072;-49
2022/08/20 01:59:15;;;;;;;2.00;1.90;;;;;;;21.56;53.87;101147.38;4954439;28;97499;-47
2022/08/20 02:01:41;;;;;;;2.73;2.53;;;;;;;21.54;53.92;101143.63;4952556;28;97741;-48
2022/08/20 02:04:08;;;;;;;2.47;2.37;;;;;;;21.54;53.96;101140.81;4952694;28;97272;-48
2022/08/20 02:06:37;;;;;;;2.93;2.73;;;;;;;21.56;54.03;101144.56;4955999;28;97261;-48
2022/08/20 02:09:04;;;;;;;2.87;2.67;;;;;;;21.57;54.02;101143.28;4958006;28;96975;-48
2022/08/20 02:11:32;;;;;;;2.30;2.20;;;;;;;21.55;53.87;101147.94;4951735;28;101754;-48
2022/08/20 02:13:57;;;;;;;2.77;2.57;;;;;;;21.54;54.06;101135.22;4956100;28;98497;-48
2022/08/20 02:16:29;;;;;;;2.53;2.43;;;;;;;21.55;54.10;101145.13;4956716;28;96903;-48
2022/08/20 02:18:59;;;;;;;2.43;2.33;;;;;;;21.55;54.08;101145.88;4957311;28;99953;-48
2022/08/20 02:21:27;;;;;;;2.70;2.60;;;;;;;21.54;54.14;101147.19;4954626;28;96812;-48
2022/08/20 02:23:54;;;;;;;3.47;2.10;;;;;;;21.54;54.22;101143.63;4958541;28;97363;-48
2022/08/20 02:26:21;;;;;;;2.70;2.60;;;;;;;21.56;54.17;101138.97;4953059;28;96821;-48
2022/08/20 02:28:49;;;;;;;2.50;2.40;;;;;;;21.58;54.23;101133.56;4957298;28;97439;-48
2022/08/20 02:31:16;;;;;;;3.10;2.90;;;;;;;21.60;54.30;101139.34;4955789;28;97010;-48
2022/08/20 02:33:42;;;;;;;2.60;2.50;;;;;;;21.61;54.37;101129.66;4954373;28;97382;-48
2022/08/20 02:36:09;;;;;;;2.70;2.60;;;;;;;21.59;54.28;101132.25;4955783;28;97369;-49
2022/08/20 02:38:37;;;;;;;2.93;2.73;;;;;;;21.57;54.29;101142.53;4957961;28;97310;-48
2022/08/20 02:41:03;;;;;;;2.20;2.10;;;;;;;21.57;54.41;101139.72;4944702;28;98645;-49
2022/08/20 02:43:30;;;;;;;2.20;2.10;;;;;;;21.54;54.28;101140.81;4953160;28;98395;-48
2022/08/20 02:45:56;;;;;;;2.63;2.53;;;;;;;21.52;54.49;101149.78;4959508;28;97421;-48
2022/08/20 02:48:21;;;;;;;2.60;2.50;;;;;;;21.52;54.42;101149.03;4957448;28;98071;-48
2022/08/20 02:50:51;;;;;;;2.63;2.43;;;;;;;21.51;54.57;101148.28;4954159;28;97057;-48
2022/08/20 02:53:16;;;;;;;2.50;2.40;;;;;;;21.53;54.65;101147.75;4956533;28;97591;-48
2022/08/20 02:55:42;;;;;;;3.50;2.40;;;;;;;21.56;54.70;101141.03;4957042;28;97364;-48
2022/08/20 02:58:07;;;;;;;2.70;2.60;;;;;;;21.55;54.69;101145.13;4956895;28;96952;-48
2022/08/20 03:00:33;;;;;;;2.60;2.50;;;;;;;21.59;54.83;101145.50;4952312;28;96960;-48
2022/08/20 03:02:59;;;;;;;2.73;2.53;;;;;;;21.58;54.73;101146.81;4954496;28;97249;-48
2022/08/20 03:05:25;;;;;;;2.43;2.33;;;;;;;21.58;54.66;101141.22;4952471;28;97271;-48
2022/08/20 03:07:52;;;;;;;3.10;2.53;;;;;;;21.60;54.73;101144.22;4959127;28;97117;-48
2022/08/20 03:10:24;;;;;;;3.23;3.03;;;;;;;21.61;54.84;101138.06;4956043;28;97019;-48
2022/08/20 03:12:51;;;;;;;2.83;2.70;;;;;;;21.60;54.73;101130.94;4951812;28;97956;-48
2022/08/20 03:15:17;;;;;;;4.03;2.90;;;;;;;21.61;54.83;101140.09;4955862;28;98152;-48
2022/08/20 03:17:43;;;;;;;3.30;3.10;;;;;;;21.61;54.76;101142.91;4954978;28;97237;-48
2022/08/20 03:20:09;;;;;;;2.77;2.60;;;;;;;21.60;54.88;101144.94;4947058;28;98938;-48
2022/08/20 03:22:35;;;;;;;2.87;2.77;;;;;;;21.59;54.84;101142.72;4959100;28;98558;-48
2022/08/20 03:25:00;;;;;;;2.17;2.07;;;;;;;21.59;54.91;101137.13;4956095;28;97233;-48
2022/08/20 03:27:25;;;;;;;3.03;2.83;;;;;;;21.59;55.00;101142.72;4952764;28;97159;-48
2022/08/20 03:29:51;;;;;;;2.47;2.37;;;;;;;21.59;55.12;101146.28;4954779;28;97023;-48
2022/08/20 03:32:16;;;;;;;2.30;2.20;;;;;;;21.64;55.11;101150.91;4956685;28;97474;-48
2022/08/20 03:34:42;;;;;;;2.60;2.40;;;;;;;21.67;55.14;101149.81;4955978;28;97054;-47
2022/08/20 03:37:08;;;;;;;3.23;2.90;;;;;;;21.71;55.17;101155.03;4955279;28;97408;-48
2022/08/20 03:39:34;;;;;;;3.67;3.37;;;;;;;21.75;55.08;101163.09;4955234;28;98717;-48
2022/08/20 03:41:59;;;;;;;2.40;2.30;;;;;;;21.77;55.23;101164.03;4954874;28;97109;-48
2022/08/20 03:44:25;;;;;;;2.67;2.57;;;;;;;21.80;55.23;101164.97;4958600;28;97192;-48
2022/08/20 03:46:51;;;;;;;2.90;2.80;;;;;;;21.82;55.29;101167.97;4954702;28;97566;-48
2022/08/20 03:49:16;;;;;;;3.53;3.33;;;;;;;21.85;55.38;101167.63;4953812;28;98117;-47
2022/08/20 03:51:41;;;;;;;2.93;2.73;;;;;;;21.88;55.45;101177.72;4951710;28;97415;-48
2022/08/20 03:54:07;;;;;;;2.67;2.47;;;;;;;21.88;55.41;101172.09;4953882;28;97190;-48
2022/08/20 03:56:32;;;;;;;2.60;2.50;;;;;;;21.90;55.36;101182.75;4956439;28;96895;-48
2022/08/20 03:58:57;;;;;;;2.60;2.50;;;;;;;21.92;55.51;101188.53;4955055;28;97306;-48
2022/08/20 04:01:23;;;;;;;2.70;2.60;;;;;;;21.93;55.53;101185.16;4955107;28;97448;-48
2022/08/20 04:03:48;;;;;;;3.20;3.00;;;;;;;21.95;55.52;101188.16;4954807;28;96993;-48
2022/08/20 04:06:14;;;;;;;2.83;2.63;;;;;;;21.97;55.51;101182.75;4956901;28;97046;-48
2022/08/20 04:08:40;;;;;;;2.77;2.67;;;;;;;21.97;55.60;101185.56;4957041;28;97570;-48
2022/08/20 04:11:06;;;;;;;2.70;2.60;;;;;;;21.98;55.61;101186.28;4950469;28;97345;-48
2022/08/20 04:13:31;;;;;;;3.10;2.90;;;;;;;21.96;55.68;101184.06;4953626;28;97257;-48
2022/08/20 04:16:00;;;;;;;2.77;2.67;;;;;;;21.98;55.59;101183.50;4952302;28;97109;-48
2022/08/20 04:18:25;;;;;;;3.03;2.70;;;;;;;21.99;55.67;101180.16;4954270;28;97092;-51
2022/08/20 04:20:52;;;;;;;3.27;3.07;;;;;;;22.01;55.86;101182.38;4956022;28;97787;-47
2022/08/20 04:23:19;;;;;;;2.70;2.60;;;;;;;22.03;55.79;101185.38;4954728;28;97098;-48
2022/08/20 04:25:45;;;;;;;3.43;3.13;;;;;;;22.05;55.87;101185.56;4950897;28;96854;-48
2022/08/20 04:28:14;;;;;;;2.73;2.63;;;;;;;22.06;55.89;101189.88;4952575;28;97001;-48
2022/08/20 04:30:41;;;;;;;3.27;2.97;;;;;;;22.05;55.96;101194.72;4953758;28;97245;-48
2022/08/20 04:33:07;;;;;;;3.13;2.93;;;;;;;22.06;55.96;101193.41;4956524;28;96980;-48
2022/08/20 04:35:32;;;;;;;3.17;2.97;;;;;;;22.06;55.92;101192.66;4955025;28;97104;-48
2022/08/20 04:38:12;;;;;;;3.90;2.77;;;;;;;22.07;56.05;101196.94;4955362;28;97007;-48
2022/08/20 04:40:53;;;;;;;3.63;3.40;;;;;;;22.08;55.84;101192.84;4952121;28;97498;-48
2022/08/20 04:43:29;;;;;;;3.50;3.20;;;;;;;22.09;56.00;101194.34;4956679;28;97096;-49
2022/08/20 04:45:56;;;;;;;3.10;2.90;;;;;;;22.07;55.82;101194.91;4957113;28;96826;-48
2022/08/20 04:48:23;;;;;;;3.03;2.83;;;;;;;22.10;55.88;101199.41;4950400;28;97517;-47
2022/08/20 04:50:50;;;;;;;2.70;2.57;;;;;;;22.11;55.87;101200.13;4954347;28;100025;-48
2022/08/20 04:53:17;;;;;;;3.23;2.67;;;;;;;22.12;55.96;101201.63;4955101;28;97074;-48
2022/08/20 04:55:44;;;;;;;2.90;2.80;;;;;;;22.13;56.04;101203.13;4956974;28;96933;-48
2022/08/20 04:58:37;;;;;;;2.80;2.67;;;;;;;22.12;56.23;101205.19;4955016;28;97625;-47
2022/08/20 05:01:06;;;;;;;7.10;2.50;;;;;;;22.13;55.77;101209.47;4941705;28;100026;-49
2022/08/20 05:03:32;;;;;;;3.20;3.00;;;;;;;22.14;55.89;101207.44;4951620;28;97025;-48
2022/08/20 05:06:00;;;;;;;2.30;2.20;;;;;;;22.14;55.89;101213.03;4958149;28;97172;-48
2022/08/20 05:08:25;;;;;;;2.80;2.40;;;;;;;22.14;55.84;101208.19;4955448;28;97327;-48
2022/08/20 05:10:52;;;;;;;3.00;2.67;;;;;;;22.08;55.92;101213.19;4954819;28;97161;-48
2022/08/20 05:13:18;;;;;;;2.90;2.70;;;;;;;22.05;55.95;101208.72;4954467;28;97157;-48
2022/08/20 05:15:47;;;;;;;2.63;2.53;;;;;;;22.04;56.06;101215.63;4954372;28;97010;-48
2022/08/20 05:18:17;;;;;;;2.90;2.80;;;;;;;22.06;56.27;101215.81;4950867;28;101877;-48
2022/08/20 05:20:42;;;;;;;2.10;2.00;;;;;;;22.07;56.13;101220.13;4954083;28;102679;-48
2022/08/20 05:23:10;;;;;;;2.30;2.20;;;;;;;22.09;56.23;101223.13;4951587;28;97450;-48
2022/08/20 05:25:37;;;;;;;2.70;2.20;;;;;;;22.11;55.97;101220.50;4954422;28;97523;-48
2022/08/20 05:28:12;;;;;;;2.50;2.30;;;;;;;22.12;56.20;101221.25;4953164;28;97912;-48
2022/08/20 05:30:43;;;;;;;2.73;2.57;;;;;;;22.13;56.23;101220.69;4953899;28;98536;-48
2022/08/20 05:33:12;;;;;;;3.07;2.87;;;;;;;22.13;56.12;101217.88;4954895;28;96687;-48
2022/08/20 05:35:39;;;;;;;3.20;2.90;;;;;;;22.13;56.15;101217.88;4956127;28;97097;-49
2022/08/20 05:38:09;;;;;;;2.93;2.73;;;;;;;22.15;55.98;101220.88;4948171;28;97242;-48
2022/08/20 05:40:34;;;;;;;2.80;2.53;;;;;;;22.15;55.95;101220.88;4955495;28;101601;-47
2022/08/20 05:43:03;;;;;;;2.87;2.67;;;;;;;22.17;56.17;101223.84;4960197;28;96787;-48
2022/08/20 05:45:28;;;;;;;2.70;2.50;;;;;;;22.16;56.25;101224.44;4955969;28;96915;-48
2022/08/20 05:47:54;;;;;;;2.67;2.47;;;;;;;22.15;56.32;101225.72;4956459;28;97205;-48
2022/08/20 05:50:19;;;;;;;2.40;2.20;;;;;;;22.16;56.53;101222.38;4958059;28;98543;-48
2022/08/20 05:52:45;;;;;;;3.30;2.80;;;;;;;22.20;56.47;101227.59;4954862;28;97012;-48
2022/08/20 05:55:15;;;;;;;2.90;2.70;;;;;;;22.23;56.42;101223.69;4959415;28;97239;-49
2022/08/20 05:57:41;;;;;;;2.80;2.60;;;;;;;22.26;56.26;101225.34;4958472;28;97350;-49
2022/08/20 06:00:12;;;;;;;2.73;2.60;;;;;;;22.30;56.49;101226.47;4956548;28;98459;-49
2022/08/20 06:05:23;;;;;;;3.10;2.90;;;;;;;22.32;56.29;101229.47;4960439;28;97045;-49
2022/08/20 06:07:51;;;;;;;2.70;2.60;;;;;;;22.34;56.34;101226.13;4957062;28;97360;-49
2022/08/20 06:10:17;;;;;;;2.60;2.50;;;;;;;22.35;56.52;101222.00;4956236;28;97158;-49
2022/08/20 06:12:45;;;;;;;2.57;2.40;;;;;;;22.39;56.42;101217.50;4963039;28;97394;-49
2022/08/20 06:15:12;;;;;;;2.70;2.40;;;;;;;22.42;56.50;101226.09;4954292;28;97052;-49
2022/08/20 06:17:38;;;;;;;2.33;2.23;;;;;;;22.49;56.54;101230.97;4957135;28;97248;-49
2022/08/20 06:20:06;;;;;;;2.30;2.20;;;;;;;22.54;56.41;101224.44;4956746;28;96738;-48
2022/08/20 06:22:32;;;;;;;3.40;3.13;;;;;;;22.60;56.33;101227.81;4956728;28;97228;-49
2022/08/20 06:24:58;;;;;;;2.57;2.37;;;;;;;22.65;56.31;101224.78;4958082;28;96829;-49
2022/08/20 06:27:24;;;;;;;2.53;2.43;;;;;;;22.71;56.28;101228.19;4955565;28;97510;-49
2022/08/20 06:29:50;;;;;;;2.80;2.60;;;;;;;22.76;56.38;101218.78;4954447;28;98067;-55
2022/08/20 06:32:18;;;;;;;2.83;2.63;;;;;;;22.82;56.35;101227.78;4958987;28;97216;-49
2022/08/20 06:34:44;;;;;;;2.40;2.30;;;;;;;22.88;56.10;101227.56;4962108;28;97081;-49
2022/08/20 06:37:14;;;;;;;3.87;2.60;;;;;;;22.93;56.03;101235.78;4956612;28;97582;-49
2022/08/20 06:39:40;;;;;;;2.67;2.57;;;;;;;22.97;55.98;101233.34;4958276;28;96689;-49
2022/08/20 06:42:06;;;;;;;2.40;2.30;;;;;;;23.00;55.87;101229.41;4962540;28;97346;-51
2022/08/20 06:44:31;;;;;;;2.50;2.40;;;;;;;23.04;55.67;101226.22;4959402;28;97400;-49
2022/08/20 06:47:00;;;;;;;3.90;3.53;;;;;;;23.09;55.47;101233.69;4956647;28;97499;-49
2022/08/20 06:49:25;;;;;;;4.80;2.97;;;;;;;23.15;55.54;101231.44;4957163;28;97029;-49
2022/08/20 06:51:50;;;;;;;2.37;2.27;;;;;;;23.21;55.30;101234.03;4956006;28;97178;-48
2022/08/20 06:54:16;;;;;;;2.83;2.70;;;;;;;23.27;55.28;101228.94;4954148;28;97051;-49
2022/08/20 06:56:42;;;;;;;2.47;2.33;;;;;;;23.35;55.15;101229.69;4954403;28;96981;-48
2022/08/20 06:59:08;;;;;;;2.33;2.13;;;;;;;23.43;55.31;101233.22;4958405;28;100058;-49
2022/08/20 07:01:34;;;;;;;2.50;2.40;;;;;;;23.50;55.36;101221.94;4955769;28;97159;-49
2022/08/20 07:03:59;;;;;;;3.27;3.00;;;;;;;23.58;54.88;101225.47;4958502;28;96878;-48
2022/08/20 07:06:25;;;;;;;3.17;2.97;;;;;;;23.61;54.93;101224.31;4959405;28;97440;-49
2022/08/20 07:08:51;;;;;;;2.80;2.60;;;;;;;23.65;54.85;101227.50;4957832;28;96730;-49
2022/08/20 07:11:16;;;;;;;2.57;2.47;;;;;;;23.73;54.86;101224.63;4957521;28;97047;-49
2022/08/20 07:13:42;;;;;;;2.17;2.07;;;;;;;23.80;55.07;101226.66;4954936;28;97417;-47
2022/08/20 07:16:07;;;;;;;2.60;2.40;;;;;;;23.89;54.87;101230.91;4956952;28;98511;-49
2022/08/20 07:18:33;;;;;;;2.50;2.37;;;;;;;23.95;54.74;101234.22;4954992;28;97174;-53
2022/08/20 07:20:58;;;;;;;2.47;2.37;;;;;;;24.01;54.95;101235.50;4956262;28;96616;-49
2022/08/20 07:23:25;;;;;;;2.87;2.67;;;;;;;24.08;55.06;101242.41;4950758;28;97245;-48
2022/08/20 07:25:50;;;;;;;2.20;2.10;;;;;;;24.12;54.61;101237.88;4957708;28;96791;-49
2022/08/20 07:28:20;;;;;;;2.23;2.03;;;;;;;24.20;54.60;101240.66;4957769;28;97928;-49
2022/08/20 07:33:31;;;;;;;1.87;1.77;;;;;;;24.40;54.68;101250.78;4954879;28;97195;-48
2022/08/20 07:35:59;;;;;;;2.33;2.17;;;;;;;24.53;54.48;101261.72;4956129;28;98710;-49
2022/08/20 07:38:26;;;;;;;2.40;2.23;;;;;;;24.65;54.61;101254.31;4956507;28;96821;-49
2022/08/20 07:40:54;;;;;;;1.90;1.80;;;;;;;24.71;54.47;101249.19;4955435;28;96792;-48
2022/08/20 07:43:22;;;;;;;1.60;1.57;;;;;;;24.73;54.35;101249.34;4954972;28;97286;-48
2022/08/20 07:45:48;;;;;;;2.80;2.60;;;;;;;24.76;54.23;101258.75;4950701;28;96814;-49
2022/08/20 07:48:14;;;;;;;2.00;1.90;;;;;;;24.79;54.42;101261.13;4957026;28;97232;-46
2022/08/20 07:50:40;;;;;;;1.93;1.83;;;;;;;24.86;54.13;101254.69;4957557;28;96802;-49
2022/08/20 07:53:06;;;;;;;2.33;2.17;;;;;;;24.91;54.33;101258.59;4951215;28;96996;-49
2022/08/20 07:55:32;;;;;;;2.10;2.00;;;;;;;24.96;54.13;101261.16;4955686;28;98717;-49
2022/08/20 07:58:07;;;;;;;2.10;1.93;;;;;;;25.01;54.22;101268.59;4952364;28;97930;-49
2022/08/20 08:00:32;;;;;;;1.90;1.80;;;;;;;25.06;53.90;101264.81;4953475;28;97438;-49
2022/08/20 08:02:58;;;;;;;2.00;1.90;;;;;;;25.11;54.25;101269.47;4953760;28;97071;-49
2022/08/20 08:05:24;;;;;;;2.27;2.17;;;;;;;25.19;53.97;101272.94;4955018;28;97047;-49
2022/08/20 08:07:50;;;;;;;1.70;1.60;;;;;;;25.28;53.97;101277.91;4954935;28;97237;-51
2022/08/20 08:10:20;;;;;;;1.70;1.60;;;;;;;25.36;53.37;101279.88;4945449;28;97652;-49
2022/08/20 08:12:49;;;;;;;1.67;1.57;;;;;;;25.38;53.34;101277.22;4957190;28;97246;-47
2022/08/20 08:15:23;;;;;;;1.80;1.70;;;;;;;25.44;53.50;101284.13;4951776;28;100659;-49
2022/08/20 08:17:51;;;;;;;1.80;1.70;;;;;;;25.52;53.17;101284.03;4953950;28;100805;-49
2022/08/20 08:20:18;;;;;;;1.80;1.70;;;;;;;25.58;53.16;101285.25;4956089;28;99407;-48
2022/08/20 08:22:43;;;;;;;1.90;1.80;;;;;;;25.63;53.14;101289.13;4955942;28;97158;-48
2022/08/20 08:25:14;;;;;;;2.17;2.07;;;;;;;25.68;53.21;101288.16;4957832;28;97311;-49
2022/08/20 08:27:40;;;;;;;1.87;1.60;;;;;;;25.74;53.07;101292.19;4956895;28;97197;-48
2022/08/20 08:30:08;;;;;;;1.70;1.60;;;;;;;25.82;52.85;101290.00;4954903;28;97547;-48
2022/08/20 08:32:35;;;;;;;1.90;1.80;;;;;;;25.88;53.09;101290.47;4955983;28;97135;-48
2022/08/20 08:35:06;;;;;;;1.63;1.53;;;;;;;25.93;52.88;101283.09;4956749;28;98301;-48
2022/08/20 08:37:31;;;;;;;2.07;1.90;;;;;;;25.98;52.92;101287.72;4957830;28;98583;-48
2022/08/20 08:39:57;;;;;;;1.60;1.50;;;;;;;25.99;52.70;101289.94;4955978;28;98073;-48
2022/08/20 08:42:35;;;;;;;1.83;1.73;;;;;;;26.00;52.38;101290.69;4940212;28;100595;-49
2022/08/20 08:45:03;;;;;;;2.23;1.50;;;;;;;26.02;52.19;101285.97;4956394;28;97734;-47
2022/08/20 08:47:34;;;;;;;2.20;2.10;;;;;;;26.10;52.33;101291.53;4959541;28;97864;-48
2022/08/20 08:50:01;;;;;;;1.80;1.70;;;;;;;26.13;52.06;101289.59;4948243;28;99405;-48
2022/08/20 08:52:30;;;;;;;1.97;1.87;;;;;;;26.14;51.96;101291.09;4957065;28;97399;-48
2022/08/20 08:54:59;;;;;;;1.80;1.70;;;;;;;26.14;51.96;101291.84;4946236;28;96772;-48
2022/08/20 08:57:25;;;;;;;2.20;2.00;;;;;;;26.18;52.03;101292.16;4955757;28;103304;-49
2022/08/20 08:59:58;;;;;;;2.17;1.97;;;;;;;26.28;52.05;101295.75;4959355;28;96630;-49
2022/08/20 09:02:26;;;;;;;4.10;2.00;;;;;;;26.37;52.11;101297.88;4956895;28;97207;-49
2022/08/20 09:04:54;;;;;;;1.70;1.60;;;;;;;26.44;51.84;101302.66;4956487;28;97782;-49
2022/08/20 09:07:23;;;;;;;2.23;2.13;;;;;;;26.47;51.61;101298.63;4948429;28;97142;-49
2022/08/20 09:09:49;;;;;;;2.50;2.30;;;;;;;26.49;51.75;101303.72;4956597;28;96714;-49
2022/08/20 09:12:19;;;;;;;2.17;2.07;;;;;;;26.54;51.51;101306.25;4956015;28;97188;-49
2022/08/20 09:14:48;;;;;;;1.80;1.70;;;;;;;26.62;51.52;101314.59;4955324;28;98053;-51
2022/08/20 09:17:19;;;;;;;1.63;1.53;;;;;;;26.66;51.44;101298.72;4954992;28;97262;-49
2022/08/20 09:19:44;;;;;;;2.20;2.00;;;;;;;26.69;51.52;101306.00;4950433;28;97236;-49
2022/08/20 09:22:14;;;;;;;1.80;1.70;;;;;;;26.71;51.44;101308.25;4946738;28;97294;-49
2022/08/20 09:24:40;;;;;;;1.80;1.70;;;;;;;26.73;51.63;101314.78;4953367;28;96961;-47
2022/08/20 09:27:06;;;;;;;2.57;2.40;;;;;;;26.75;51.29;101311.41;4959145;28;96883;-49
2022/08/20 09:29:32;;;;;;;2.50;2.30;;;;;;;26.67;51.04;101314.31;4958230;28;97150;-48
2022/08/20 09:32:04;;;;;;;2.10;2.00;;;;;;;26.63;51.21;101314.00;4958538;28;97318;-49
2022/08/20 09:34:33;;;;;;;2.23;2.13;;;;;;;26.63;51.29;101305.53;4959729;28;102807;-48
2022/08/20 09:36:58;;;;;;;2.40;2.30;;;;;;;26.65;51.25;101307.75;4951626;28;100261;-48
2022/08/20 09:39:23;;;;;;;2.57;2.47;;;;;;;26.67;51.39;101313.56;4947673;28;97168;-49
2022/08/20 09:41:49;;;;;;;1.60;1.50;;;;;;;26.72;51.43;101307.66;4955658;28;101590;-49
2022/08/20 09:44:15;;;;;;;3.03;2.00;;;;;;;26.79;51.36;101316.59;4957077;28;96975;-49
2022/08/20 09:46:40;;;;;;;2.27;2.07;;;;;;;26.81;51.22;101305.44;4957606;28;98504;-49
2022/08/20 09:49:05;;;;;;;1.73;1.63;;;;;;;26.80;51.38;101318.81;4954532;28;97099;-49
2022/08/20 09:51:31;;;;;;;1.30;1.20;;;;;;;26.81;51.33;101311.84;4958478;28;97011;-49
2022/08/20 09:53:57;;;;;;;1.93;1.70;;;;;;;26.80;51.28;101315.28;4955368;28;97038;-48
2022/08/20 09:56:23;;;;;;;1.70;1.60;;;;;;;26.77;51.52;101310.78;4956075;28;98559;-48
2022/08/20 09:58:51;;;;;;;1.50;1.40;;;;;;;26.74;51.33;101315.53;4954950;28;97081;-47
2022/08/20 10:01:18;;;;;;;1.87;1.40;;;;;;;26.71;51.76;101316.72;4956944;28;97124;-47
2022/08/20 10:03:47;;;;;;;1.70;1.60;;;;;;;26.64;51.74;101318.31;4955854;28;96861;-47
2022/08/20 10:06:13;;;;;;;1.70;1.60;;;;;;;26.57;52.17;101324.84;4956760;28;96942;-47
2022/08/20 10:08:39;;;;;;;1.70;1.60;;;;;;;26.53;52.07;101323.78;4956930;28;96856;-47
2022/08/20 10:11:04;;;;;;;1.77;1.67;;;;;;;26.44;52.29;101328.06;4955833;28;97025;-47
2022/08/20 10:13:30;;;;;;;1.97;1.87;;;;;;;26.32;52.20;101329.94;4957997;28;97120;-48
2022/08/20 10:15:56;;;;;;;1.77;1.67;;;;;;;26.23;52.36;101329.91;4956061;28;97362;-50
2022/08/20 10:18:21;;;;;;;1.80;1.70;;;;;;;26.12;52.67;101330.44;4954231;28;97248;-51
2022/08/20 10:20:46;;;;;;;3.47;1.67;;;;;;;26.07;52.68;101323.69;4954467;28;97116;-49
2022/08/20 10:23:12;;;;;;;2.23;1.80;;;;;;;26.08;52.95;101330.81;4948339;28;98544;-49
2022/08/20 10:25:37;;;;;;;1.93;1.80;;;;;;;26.14;52.75;101327.78;4956971;28;97223;-47
2022/08/20 10:28:04;;;;;;;1.97;1.70;;;;;;;26.20;52.77;101337.44;4956390;28;97248;-49
2022/08/20 10:30:29;;;;;;;1.63;1.53;;;;;;;26.21;52.79;101316.34;4961188;28;97001;-48
2022/08/20 10:32:54;;;;;;;1.23;1.23;;;;;;;26.22;52.84;101317.09;4957248;28;97248;-47
2022/08/20 10:35:20;;;;;;;1.53;1.43;;;;;;;26.24;52.47;101314.44;4958397;28;97354;-47
2022/08/20 10:37:46;;;;;;;2.70;1.57;;;;;;;26.29;52.41;101321.91;4959345;28;96849;-47
2022/08/20 10:40:14;;;;;;;1.60;1.50;;;;;;;26.31;52.06;101324.88;4959454;28;97232;-52
2022/08/20 10:42:39;;;;;;;1.40;1.30;;;;;;;26.34;52.34;101318.06;4958047;28;97225;-48
2022/08/20 10:45:05;;;;;;;1.37;1.27;;;;;;;26.41;52.23;101317.94;4957921;28;97529;-47
2022/08/20 10:47:31;;;;;;;1.20;1.20;;;;;;;26.47;51.89;101318.41;4959915;28;97041;-48
2022/08/20 10:49:59;;;;;;;1.53;1.43;;;;;;;26.55;52.07;101318.28;4951573;28;97205;-47
2022/08/20 10:52:26;;;;;;;1.40;1.30;;;;;;;26.64;52.07;101323.22;4959209;28;97229;-48
2022/08/20 10:54:52;;;;;;;1.43;1.33;;;;;;;26.71;51.98;101325.91;4957654;28;97371;-51
2022/08/20 10:57:21;;;;;;;1.47;1.47;;;;;;;26.80;51.44;101326.56;4959001;28;97105;-50
2022/08/20 10:59:49;;;;;;;1.50;1.40;;;;;;;26.85;51.62;101322.69;4953722;28;97001;-52
2022/08/20 11:02:15;;;;;;;1.70;1.40;;;;;;;26.88;51.52;101318.69;4955237;28;98095;-49
2022/08/20 11:04:41;;;;;;;1.47;1.37;;;;;;;26.90;51.50;101321.66;4955592;28;97455;-48
2022/08/20 11:07:16;;;;;;;1.40;1.30;;;;;;;26.89;51.35;101318.09;4952769;28;97367;-51
2022/08/20 11:09:43;;;;;;;1.55;1.45;;;;;;;26.90;51.35;101325.25;4955507;28;97009;-48
2022/08/20 11:12:09;;;;;;;1.00;1.00;;;;;;;26.82;51.33;101321.81;4954193;28;97647;-47
2022/08/20 11:14:34;;;;;;;1.57;1.47;;;;;;;26.76;51.33;101326.25;4955425;28;97698;-46
2022/08/20 11:17:01;;;;;;;1.37;1.30;;;;;;;26.69;51.62;101337.03;4957566;28;96973;-52
2022/08/20 11:19:27;;;;;;;1.50;1.40;;;;;;;26.63;51.83;101336.59;4960938;28;97515;-49
2022/08/20 11:21:52;;;;;;;1.53;1.43;;;;;;;26.57;52.11;101346.66;4955242;28;97381;-49
2022/08/20 11:24:18;;;;;;;1.37;1.27;;;;;;;26.47;52.17;101345.91;4957824;28;97612;-47
2022/08/20 11:26:46;;;;;;;1.50;1.40;;;;;;;26.37;52.71;101356.38;4962147;28;97189;-46
2022/08/20 11:29:11;;;;;;;2.17;2.07;;;;;;;26.28;53.01;101357.81;4955288;28;97353;-49
2022/08/20 11:31:36;;;;;;;2.30;2.20;;;;;;;26.18;53.48;101362.69;4957121;28;97409;-53